Time;durP1;ratioP1;P1;durP2;ratioP2;P2;SDS_P1;SDS_P2;PMS_P1;PMS_P2;Temp;Humidity;BMP_temperature;BMP_pressure;BME280_temperature;BME280_humidity;BME280_pressure;Samples;Min_cycle;Max_cycle;Signal;HPM_P1;HPM_P2
2022/05/22 00:00:48;;;;;;;;;;;13.90;99.50;;;;;;5035359;28;20419;-82
2022/05/22 00:03:17;;;;;;;;;;;13.80;99.50;;;;;;5042517;28;19932;-82
2022/05/22 00:05:54;;;;;;;;;;;14.10;99.30;;;;;;5036467;28;19939;-81
2022/05/22 00:08:24;;;;;;;;;;;13.70;99.80;;;;;;5018908;28;20426;-82
2022/05/22 00:10:54;;;;;;;;;;;13.50;99.50;;;;;;5034755;28;19933;-81
2022/05/22 00:13:26;;;;;;;;;;;13.80;99.70;;;;;;5035651;28;19926;-81
2022/05/22 00:18:42;;;;;;;;;;;13.60;99.90;;;;;;5022232;28;19927;-81
2022/05/22 00:21:11;;;;;;;;;;;12.90;99.60;;;;;;5027383;28;19936;-81
2022/05/22 00:23:39;;;;;;;;;;;13.60;99.80;;;;;;5043542;28;20375;-82
2022/05/22 00:26:07;;;;;;;;;;;13.60;99.90;;;;;;5010609;28;19926;-81
2022/05/22 00:28:36;;;;;;;;;;;13.50;99.80;;;;;;5005530;28;19929;-82
2022/05/22 00:31:04;;;;;;;;;;;13.40;99.90;;;;;;5003142;28;19930;-81
2022/05/22 00:33:33;;;;;;;;;;;13.40;99.90;;;;;;4994427;28;19929;-81
2022/05/22 00:36:01;;;;;;;;;;;13.40;99.90;;;;;;5022208;28;19936;-81
2022/05/22 00:38:29;;;;;;;;;;;13.90;99.90;;;;;;5024936;28;19926;-81
2022/05/22 00:40:58;;;;;;;;;;;13.20;99.90;;;;;;5024799;28;19933;-81
2022/05/22 00:43:41;;;;;;;;;;;13.20;99.90;;;;;;5005788;28;19936;-82
2022/05/22 00:46:14;;;;;;;;;;;13.10;99.90;;;;;;5005534;28;19929;-82
2022/05/22 00:48:43;;;;;;;;;;;13.10;99.90;;;;;;5022248;28;19940;-82
2022/05/22 00:51:18;;;;;;;;;;;13.00;99.90;;;;;;5026889;28;19929;-82
2022/05/22 00:53:49;;;;;;;;;;;13.00;99.90;;;;;;5041554;28;19936;-81
2022/05/22 00:56:19;;;;;;;;;;;13.00;99.90;;;;;;5006611;28;19941;-82
2022/05/22 00:58:50;;;;;;;;;;;12.70;99.90;;;;;;4986079;28;20392;-81
2022/05/22 01:01:18;;;;;;;;;;;12.80;99.90;;;;;;5001792;28;19934;-81
2022/05/22 01:03:47;;;;;;;;;;;12.80;99.90;;;;;;5002509;28;19929;-82
2022/05/22 01:06:46;;;;;;;;;;;12.80;99.90;;;;;;5021024;28;19925;-81
2022/05/22 01:10:29;;;;;;;;;;;12.80;99.90;;;;;;4942848;28;19927;-81
2022/05/22 01:13:34;;;;;;;;;;;12.70;99.90;;;;;;4961943;28;20532;-81
2022/05/22 01:16:32;;;;;;;;;;;;;;;;;;;;;
2022/05/22 01:20:05;;;;;;;;;;;13.30;99.90;;;;;;4899082;29;19931;-82
2022/05/22 01:22:43;;;;;;;;;;;12.70;99.90;;;;;;4898705;29;19931;-82
2022/05/22 01:26:23;;;;;;;;;;;10.80;99.90;;;;;;4842940;29;19929;-82
2022/05/22 01:29:46;;;;;;;;;;;12.70;99.90;;;;;;4802279;29;19933;-82
2022/05/22 01:36:29;;;;;;;;;;;12.70;99.90;;;;;;4762872;29;19921;-81
2022/05/22 01:39:18;;;;;;;;;;;12.70;99.90;;;;;;4840371;29;20307;-81
2022/05/22 01:42:27;;;;;;;;;;;12.70;99.90;;;;;;4947391;28;19926;-81
2022/05/22 01:46:11;;;;;;;;;;;12.80;99.90;;;;;;4941578;29;19941;-81
2022/05/22 01:48:39;;;;;;;;;;;12.80;99.90;;;;;;4965144;28;19926;-81
2022/05/22 01:51:41;;;;;;;;;;;12.70;99.90;;;;;;4989665;28;20328;-81
2022/05/22 01:54:33;;;;;;;;;;;12.80;99.90;;;;;;4952675;28;20447;-81
2022/05/22 01:57:36;;;;;;;;;;;;;;;;;;;;;
2022/05/22 02:00:34;;;;;;;;;;;12.80;99.90;;;;;;5022266;28;19926;-81
2022/05/22 02:03:58;;;;;;;;;;;;;;;;;;;;;
2022/05/22 02:14:21;;;;;;;;;;;;;;;;;;;;;
2022/05/22 02:17:28;;;;;;;;;;;;;;;;;;;;;
2022/05/22 02:20:40;;;;;;;;;;;;;;;;;;;;;
2022/05/22 02:24:11;;;;;;;;;;;;;;;;;;;;;
2022/05/22 02:27:31;;;;;;;;;;;11.70;99.90;;;;;;4865772;29;19928;-81
2022/05/22 02:30:53;;;;;;;;;;;12.20;99.90;;;;;;4879540;29;20308;-82
2022/05/22 02:34:13;;;;;;;;;;;12.50;99.90;;;;;;4938292;28;19927;-81
2022/05/22 02:36:53;;;;;;;;;;;12.50;99.90;;;;;;5024705;28;19926;-81
2022/05/22 02:40:22;;;;;;;;;;;12.50;99.90;;;;;;5006521;28;19948;-82
2022/05/22 02:43:32;;;;;;;;;;;;;;;;;;;;;
2022/05/22 02:46:28;;;;;;;;;;;12.50;99.90;;;;;;5022043;28;20691;-82
2022/05/22 02:49:10;;;;;;;;;;;12.30;99.90;;;;;;4951119;28;19930;-82
2022/05/22 02:59:10;;;;;;;;;;;12.20;99.90;;;;;;5000220;28;19937;-81
2022/05/22 03:01:56;;;;;;;;;;;10.80;99.90;;;;;;4987630;28;19930;-81
2022/05/22 03:04:39;;;;;;;;;;;12.20;99.90;;;;;;5006378;28;20454;-81
2022/05/22 03:07:21;;;;;;;;;;;12.20;99.90;;;;;;5025530;28;19933;-81
2022/05/22 03:10:10;;;;;;;;;;;12.20;99.90;;;;;;5012048;28;19925;-81
2022/05/22 03:12:43;;;;;;;;;;;12.10;99.90;;;;;;5045461;28;19925;-82
2022/05/22 03:18:22;;;;;;;;;;;12.10;99.90;;;;;;5025856;28;19925;-82
2022/05/22 03:20:51;;;;;;;;;;;12.10;99.90;;;;;;5009086;28;19930;-82
2022/05/22 03:26:23;;;;;;;;;;;11.20;99.90;;;;;;5026075;28;19926;-82
2022/05/22 03:28:53;;;;;;;;;;;12.00;99.90;;;;;;5008659;28;19925;-81
2022/05/22 03:31:22;;;;;;;;;;;12.00;99.90;;;;;;5008702;28;19925;-82
2022/05/22 03:34:37;;;;;;;;;;;;;;;;;;;;;
2022/05/22 03:37:06;;;;;;;;;;;11.90;99.90;;;;;;5008797;28;19929;-81
2022/05/22 03:39:35;;;;;;;;;;;11.90;99.90;;;;;;5041020;28;19929;-81
2022/05/22 03:45:02;;;;;;;;;;;11.80;99.90;;;;;;5035013;28;19929;-82
2022/05/22 03:47:39;;;;;;;;;;;11.80;99.90;;;;;;5008537;28;20039;-82
2022/05/22 03:50:14;;;;;;;;;;;11.80;99.90;;;;;;5008528;28;19945;-81
2022/05/22 03:52:47;;;;;;;;;;;11.80;99.90;;;;;;5032722;28;19933;-82
2022/05/22 03:55:27;;;;;;;;;;;13.60;99.90;;;;;;5014155;28;19932;-82
2022/05/22 03:57:58;;;;;;;;;;;11.70;99.90;;;;;;5025319;28;19926;-82
2022/05/22 04:00:28;;;;;;;;;;;11.70;99.90;;;;;;5005315;28;20445;-81
2022/05/22 04:03:02;;;;;;;;;;;11.70;99.90;;;;;;5005320;28;19926;-82
2022/05/22 04:05:31;;;;;;;;;;;11.70;99.90;;;;;;5026317;28;19925;-81
2022/05/22 04:08:02;;;;;;;;;;;10.90;99.90;;;;;;5011846;28;20450;-82
2022/05/22 04:10:43;;;;;;;;;;;11.60;99.90;;;;;;5011558;28;19935;-81
2022/05/22 04:13:13;;;;;;;;;;;11.60;99.90;;;;;;5042705;28;19930;-81
2022/05/22 04:15:42;;;;;;;;;;;11.50;99.90;;;;;;5017639;28;19933;-81
2022/05/22 04:18:13;;;;;;;;;;;11.70;99.90;;;;;;5024709;28;19952;-83
2022/05/22 04:20:41;;;;;;;;;;;11.50;99.90;;;;;;5009025;28;19930;-81
2022/05/22 04:26:15;;;;;;;;;;;11.60;99.90;;;;;;5008806;28;19929;-81
2022/05/22 04:28:45;;;;;;;;;;;11.90;99.90;;;;;;5025081;28;19932;-80
2022/05/22 04:31:27;;;;;;;;;;;11.60;99.90;;;;;;5005603;28;19936;-81
2022/05/22 04:34:12;;;;;;;;;;;11.60;99.90;;;;;;5002350;28;19925;-82
2022/05/22 04:36:42;;;;;;;;;;;11.70;99.90;;;;;;5025878;28;19933;-81
2022/05/22 04:39:23;;;;;;;;;;;11.70;99.90;;;;;;5008530;28;19926;-81
2022/05/22 04:42:06;;;;;;;;;;;11.70;99.90;;;;;;5029543;28;19925;-81
2022/05/22 04:45:00;;;;;;;;;;;11.70;99.90;;;;;;5035009;28;19936;-81
2022/05/22 04:47:59;;;;;;;;;;;11.70;99.90;;;;;;5011854;28;19925;-81
2022/05/22 04:50:52;;;;;;;;;;;11.90;99.90;;;;;;4676014;28;9999811;-81
2022/05/22 04:53:47;;;;;;;;;;;11.70;99.90;;;;;;5009578;28;19930;-81
2022/05/22 04:56:25;;;;;;;;;;;11.70;99.90;;;;;;5007436;28;19926;-81
2022/05/22 04:58:56;;;;;;;;;;;11.80;99.90;;;;;;5022873;28;19933;-81
2022/05/22 05:01:27;;;;;;;;;;;11.70;99.90;;;;;;5012360;28;19923;-82
2022/05/22 05:04:27;;;;;;;;;;;11.80;99.90;;;;;;5002039;28;19932;-82
2022/05/22 05:07:06;;;;;;;;;;;12.00;99.90;;;;;;5015357;28;19929;-82
2022/05/22 05:09:57;;;;;;;;;;;11.90;99.90;;;;;;5016007;28;19932;-81
2022/05/22 05:12:47;;;;;;;;;;;12.00;99.90;;;;;;5039452;28;19933;-81
2022/05/22 05:15:37;;;;;;;;;;;12.00;99.90;;;;;;5004582;28;19933;-81
2022/05/22 05:18:30;;;;;;;;;;;12.00;99.90;;;;;;4986712;28;19930;-82
2022/05/22 05:21:03;;;;;;;;;;;12.10;99.90;;;;;;5023668;28;19932;-82
2022/05/22 05:24:19;;;;;;;;;;;12.10;99.90;;;;;;4986505;28;19941;-82
2022/05/22 05:26:54;;;;;;;;;;;12.20;99.90;;;;;;4985012;28;19936;-82
2022/05/22 05:30:26;;;;;;;;;;;12.50;99.90;;;;;;4966949;28;19938;-81
2022/05/22 05:33:41;;;;;;;;;;;12.20;99.90;;;;;;4941449;28;19941;-82
2022/05/22 05:36:33;;;;;;;;;;;12.30;99.90;;;;;;4985375;28;19969;-81
2022/05/22 05:39:27;;;;;;;;;;;12.30;99.90;;;;;;4984309;28;19933;-81
2022/05/22 05:42:04;;;;;;;;;;;12.30;99.90;;;;;;4967973;28;19926;-81
2022/05/22 05:45:04;;;;;;;;;;;12.40;99.90;;;;;;4994678;28;19977;-81
2022/05/22 05:47:57;;;;;;;;;;;12.50;99.90;;;;;;4967459;28;19975;-81
2022/05/22 05:50:45;;;;;;;;;;;12.50;99.90;;;;;;4951791;28;19942;-81
2022/05/22 05:53:40;;;;;;;;;;;12.60;99.90;;;;;;4981191;28;19929;-81
2022/05/22 05:56:45;;;;;;;;;;;12.70;99.90;;;;;;5005593;28;19936;-81
2022/05/22 05:59:38;;;;;;;;;;;12.80;99.90;;;;;;4955583;28;19926;-81
2022/05/22 06:02:18;;;;;;;;;;;12.40;99.90;;;;;;5017324;28;19937;-82
2022/05/22 06:04:47;;;;;;;;;;;13.00;99.90;;;;;;4997182;28;20154;-83
2022/05/22 06:07:16;;;;;;;;;;;13.10;99.90;;;;;;5014034;28;19929;-81
2022/05/22 06:09:46;;;;;;;;;;;13.20;99.90;;;;;;5017540;28;19932;-81
2022/05/22 06:12:35;;;;;;;;;;;13.30;99.90;;;;;;5031448;28;19933;-82
2022/05/22 06:15:14;;;;;;;;;;;14.90;99.90;;;;;;5013226;28;19926;-82
2022/05/22 06:17:48;;;;;;;;;;;13.00;99.90;;;;;;4998408;28;19926;-82
2022/05/22 06:20:29;;;;;;;;;;;13.70;99.90;;;;;;5021213;28;19925;-83
2022/05/22 06:23:21;;;;;;;;;;;13.80;99.90;;;;;;5032336;28;20462;-82
2022/05/22 06:26:09;;;;;;;;;;;13.90;99.90;;;;;;5009357;28;19937;-80
2022/05/22 06:29:03;;;;;;;;;;;14.00;99.90;;;;;;5002711;28;19925;-82
2022/05/22 06:31:53;;;;;;;;;;;14.00;99.90;;;;;;5017499;28;19925;-82
2022/05/22 06:34:35;;;;;;;;;;;14.10;99.90;;;;;;5032259;28;19930;-82
2022/05/22 06:37:19;;;;;;;;;;;13.00;99.90;;;;;;5012796;28;20354;-82
2022/05/22 06:40:07;;;;;;;;;;;14.20;99.90;;;;;;5012958;28;19925;-81
2022/05/22 06:42:52;;;;;;;;;;;14.30;99.90;;;;;;5052146;28;20410;-82
2022/05/22 06:45:29;;;;;;;;;;;14.40;99.90;;;;;;5026210;28;19930;-81
2022/05/22 06:48:25;;;;;;;;;;;14.40;99.90;;;;;;5028778;28;20437;-82
2022/05/22 06:51:12;;;;;;;;;;;14.50;99.90;;;;;;5028092;28;19936;-81
2022/05/22 06:53:59;;;;;;;;;;;14.60;99.90;;;;;;5020633;28;19932;-81
2022/05/22 06:56:52;;;;;;;;;;;14.30;99.90;;;;;;5020329;28;19933;-82
2022/05/22 06:59:33;;;;;;;;;;;14.70;99.90;;;;;;5001706;28;19932;-82
2022/05/22 07:02:21;;;;;;;;;;;14.50;99.90;;;;;;5015330;28;19925;-81
2022/05/22 07:05:10;;;;;;;;;;;15.00;99.90;;;;;;5009606;28;19933;-82
2022/05/22 07:08:10;;;;;;;;;;;15.00;99.90;;;;;;5003155;28;19926;-82
2022/05/22 07:13:52;;;;;;;;;;;15.30;99.90;;;;;;5028303;28;19925;-82
2022/05/22 07:16:44;;;;;;;;;;;15.50;99.90;;;;;;5008930;28;19925;-82
2022/05/22 07:19:21;;;;;;;;;;;15.70;99.90;;;;;;4994513;28;19933;-81
2022/05/22 07:22:06;;;;;;;;;;;15.90;99.90;;;;;;5031807;28;19929;-82
2022/05/22 07:24:40;;;;;;;;;;;16.10;99.90;;;;;;5038883;28;19925;-83
2022/05/22 07:27:28;;;;;;;;;;;16.20;99.90;;;;;;5016488;28;19925;-82
2022/05/22 07:30:29;;;;;;;;;;;16.40;99.90;;;;;;5013712;28;19925;-81
2022/05/22 07:33:24;;;;;;;;;;;16.60;99.90;;;;;;5025383;22;19937;-82
2022/05/22 07:35:58;;;;;;;;;;;16.80;99.40;;;;;;5002543;28;20453;-82
2022/05/22 07:38:39;;;;;;;;;;;17.00;99.10;;;;;;4983652;28;19936;-82
2022/05/22 07:41:11;;;;;;;;;;;17.10;98.70;;;;;;5006248;28;19930;-82
2022/05/22 07:44:09;;;;;;;;;;;17.20;98.70;;;;;;4996489;28;19937;-82
2022/05/22 07:46:49;;;;;;;;;;;17.40;98.60;;;;;;4988265;28;19945;-82
2022/05/22 07:52:57;;;;;;;;;;;17.50;97.40;;;;;;4983118;28;19970;-82
2022/05/22 07:56:03;;;;;;;;;;;17.50;97.50;;;;;;4991381;28;19926;-84
2022/05/22 07:58:59;;;;;;;;;;;17.60;97.40;;;;;;4996542;28;19926;-82
2022/05/22 08:01:44;;;;;;;;;;;17.60;96.40;;;;;;5000393;28;19930;-82
2022/05/22 08:04:31;;;;;;;;;;;17.60;96.80;;;;;;4988091;28;19926;-82
2022/05/22 08:07:57;;;;;;;;;;;17.70;97.00;;;;;;4977507;28;19930;-82
2022/05/22 08:10:44;;;;;;;;;;;19.10;96.90;;;;;;4974258;28;20418;-82
2022/05/22 08:13:19;;;;;;;;;;;17.80;96.90;;;;;;5000402;28;20383;-82
2022/05/22 08:15:48;;;;;;;;;;;17.90;96.20;;;;;;5000981;28;19926;-82
2022/05/22 08:18:45;;;;;;;;;;;17.90;96.60;;;;;;4993160;28;19926;-82
2022/05/22 08:21:13;;;;;;;;;;;18.80;95.90;;;;;;4983061;28;20048;-82
2022/05/22 08:23:48;;;;;;;;;;;18.10;95.20;;;;;;4996694;28;19937;-82
2022/05/22 08:26:22;;;;;;;;;;;16.40;95.70;;;;;;4980411;28;19930;-83
2022/05/22 08:28:51;;;;;;;;;;;18.20;94.60;;;;;;4986302;28;20021;-82
2022/05/22 08:31:22;;;;;;;;;;;19.70;95.10;;;;;;4978991;28;20418;-83
2022/05/22 08:33:54;;;;;;;;;;;18.30;95.00;;;;;;4998118;28;19937;-81
2022/05/22 08:36:22;;;;;;;;;;;18.40;95.20;;;;;;5000112;28;19930;-82
2022/05/22 08:38:51;;;;;;;;;;;18.50;94.10;;;;;;4982052;28;20095;-81
2022/05/22 08:41:21;;;;;;;;;;;18.50;94.10;;;;;;4987849;28;19926;-82
2022/05/22 08:43:55;;;;;;;;;;;18.60;94.20;;;;;;5000111;28;19925;-82
2022/05/22 08:46:24;;;;;;;;;;;18.60;93.20;;;;;;4996541;28;19930;-82
2022/05/22 08:48:53;;;;;;;;;;;18.60;94.70;;;;;;4996721;28;19936;-82
2022/05/22 08:51:28;;;;;;;;;;;18.70;94.60;;;;;;4982904;28;19930;-82
2022/05/22 08:53:58;;;;;;;;;;;18.20;93.50;;;;;;4983116;28;19945;-82
2022/05/22 08:59:31;;;;;;;;;;;18.90;93.20;;;;;;5000250;28;19929;-82
2022/05/22 09:02:27;;;;;;;;;;;18.90;93.20;;;;;;4979999;28;20312;-83
2022/05/22 09:05:54;;;;;;;;;;;18.60;93.10;;;;;;4996062;28;20279;-83
2022/05/22 09:08:33;;;;;;;;;;;18.90;93.30;;;;;;4953812;28;19926;-81
2022/05/22 09:11:06;;;;;;;;;;;19.20;92.60;;;;;;4994576;28;19937;-81
2022/05/22 09:13:34;;;;;;;;;;;19.30;93.10;;;;;;4977629;28;19941;-80
2022/05/22 09:16:12;;;;;;;;;;;19.30;93.00;;;;;;4986082;28;20001;-85
2022/05/22 09:19:01;;;;;;;;;;;19.40;93.00;;;;;;4996884;28;19941;-80
2022/05/22 09:21:35;;;;;;;;;;;19.50;92.40;;;;;;4999290;28;19933;-79
2022/05/22 09:24:31;;;;;;;;;;;19.60;92.90;;;;;;4999185;28;19925;-79
2022/05/22 09:26:59;;;;;;;;;;;19.80;92.10;;;;;;4990348;28;20138;-83
2022/05/22 09:29:45;;;;;;;;;;;19.80;91.90;;;;;;4992611;28;19930;-80
2022/05/22 09:32:24;;;;;;;;;;;19.90;91.40;;;;;;5007602;28;19930;-80
2022/05/22 09:34:58;;;;;;;;;;;20.00;91.70;;;;;;5001988;28;19940;-79
2022/05/22 09:37:34;;;;;;;;;;;20.00;90.80;;;;;;4996503;28;19937;-80
2022/05/22 09:40:07;;;;;;;;;;;20.10;91.40;;;;;;4977423;28;19930;-79
2022/05/22 09:42:44;;;;;;;;;;;20.10;91.00;;;;;;4981788;28;19936;-80
2022/05/22 09:45:17;;;;;;;;;;;20.10;90.00;;;;;;4991798;28;20472;-79
2022/05/22 09:47:51;;;;;;;;;;;20.10;90.80;;;;;;4995619;28;20198;-80
2022/05/22 09:50:40;;;;;;;;;;;20.10;90.60;;;;;;4981589;28;19934;-80
2022/05/22 09:53:17;;;;;;;;;;;20.10;90.70;;;;;;4995798;28;19926;-80
2022/05/22 09:55:45;;;;;;;;;;;20.10;90.50;;;;;;4999068;28;19932;-79
2022/05/22 09:58:32;;;;;;;;;;;20.10;90.50;;;;;;4978950;28;19930;-79
2022/05/22 10:01:11;;;;;;;;;;;20.10;89.90;;;;;;4980384;28;19930;-80
2022/05/22 10:03:51;;;;;;;;;;;20.10;90.20;;;;;;4980557;28;19926;-80
2022/05/22 10:06:38;;;;;;;;;;;20.20;90.20;;;;;;4997787;28;19940;-79
2022/05/22 10:09:07;;;;;;;;;;;20.30;90.50;;;;;;4995999;28;19926;-80
2022/05/22 10:11:45;;;;;;;;;;;20.50;89.40;;;;;;5015107;28;20255;-84
2022/05/22 10:14:42;;;;;;;;;;;20.60;89.00;;;;;;4981599;28;19926;-80
2022/05/22 10:17:10;;;;;;;;;;;20.70;88.50;;;;;;4998594;28;19942;-81
2022/05/22 10:19:45;;;;;;;;;;;20.80;87.00;;;;;;4997943;28;20239;-79
2022/05/22 10:22:18;;;;;;;;;;;21.00;87.80;;;;;;4997283;28;19941;-81
2022/05/22 10:25:01;;;;;;;;;;;21.00;88.50;;;;;;4997088;28;19930;-85
2022/05/22 10:27:50;;;;;;;;;;;21.10;88.10;;;;;;4997074;28;19937;-80
2022/05/22 10:30:21;;;;;;;;;;;21.30;88.70;;;;;;4992040;28;20001;-80
2022/05/22 10:32:53;;;;;;;;;;;21.30;87.10;;;;;;5012859;28;20225;-82
2022/05/22 10:35:24;;;;;;;;;;;21.30;86.90;;;;;;5005305;28;19941;-79
2022/05/22 10:38:08;;;;;;;;;;;21.10;85.50;;;;;;5003218;28;19925;-82
2022/05/22 10:43:36;;;;;;;;;;;21.60;86.60;;;;;;5002687;28;19925;-79
2022/05/22 10:46:04;;;;;;;;;;;21.80;85.90;;;;;;5003123;28;19926;-79
2022/05/22 10:48:35;;;;;;;;;;;21.90;86.60;;;;;;5016754;28;19934;-78
2022/05/22 10:51:06;;;;;;;;;;;22.00;85.20;;;;;;5002172;28;19944;-83
2022/05/22 10:53:48;;;;;;;;;;;22.20;85.50;;;;;;5001520;28;19929;-80
2022/05/22 10:56:26;;;;;;;;;;;22.30;83.20;;;;;;5018565;28;19925;-81
2022/05/22 10:59:00;;;;;;;;;;;22.50;83.60;;;;;;5000199;28;19929;-79
2022/05/22 11:01:34;;;;;;;;;;;22.70;83.30;;;;;;5017926;28;19933;-80
2022/05/22 11:04:13;;;;;;;;;;;22.70;82.90;;;;;;4987205;28;20629;-82
2022/05/22 11:06:53;;;;;;;;;;;23.00;80.70;;;;;;5020618;28;20419;-82
2022/05/22 11:09:24;;;;;;;;;;;22.90;81.20;;;;;;4987232;28;19933;-79
2022/05/22 11:12:10;;;;;;;;;;;22.90;82.20;;;;;;5021963;28;19925;-84
2022/05/22 11:14:42;;;;;;;;;;;22.80;81.40;;;;;;5002669;28;20620;-79
2022/05/22 11:17:14;;;;;;;;;;;22.90;81.30;;;;;;5021331;28;19930;-80
2022/05/22 11:19:45;;;;;;;;;;;23.00;82.80;;;;;;5019771;28;19929;-84
2022/05/22 11:22:20;;;;;;;;;;;23.10;81.20;;;;;;5002461;28;19930;-79
2022/05/22 11:25:06;;;;;;;;;;;23.20;80.90;;;;;;5002970;28;19941;-81
2022/05/22 11:27:54;;;;;;;;;;;23.10;81.40;;;;;;4989064;28;19934;-80
2022/05/22 11:30:41;;;;;;;;;;;23.10;80.10;;;;;;4988854;28;19933;-81
2022/05/22 11:33:41;;;;;;;;;;;22.80;80.00;;;;;;5019954;28;19929;-79
2022/05/22 11:36:24;;;;;;;;;;;23.00;81.40;;;;;;5000540;28;19925;-80
2022/05/22 11:38:52;;;;;;;;;;;23.10;79.60;;;;;;5001953;28;21385;-79
2022/05/22 11:41:22;;;;;;;;;;;23.60;81.70;;;;;;5029558;28;19944;-81
2022/05/22 11:43:50;;;;;;;;;;;23.60;80.80;;;;;;5034736;28;19929;-81
2022/05/22 11:46:26;;;;;;;;;;;23.90;80.60;;;;;;4986872;28;19941;-83
2022/05/22 11:49:11;;;;;;;;;;;24.10;79.20;;;;;;4988144;28;20401;-81
2022/05/22 11:52:02;;;;;;;;;;;23.90;79.00;;;;;;5000875;28;19929;-79
2022/05/22 11:54:46;;;;;;;;;;;24.10;78.30;;;;;;5001908;28;19961;-77
2022/05/22 11:57:26;;;;;;;;;;;24.00;79.20;;;;;;5002395;28;19925;-79
2022/05/22 12:00:08;;;;;;;;;;;23.90;79.10;;;;;;5002428;28;19925;-81
2022/05/22 12:02:39;;;;;;;;;;;24.00;78.00;;;;;;5020152;28;19936;-80
2022/05/22 12:05:25;;;;;;;;;;;24.10;79.60;;;;;;5019202;28;20322;-82
2022/05/22 12:07:52;;;;;;;;;;;24.30;79.50;;;;;;5003300;28;19925;-80
2022/05/22 12:10:45;;;;;;;;;;;24.40;79.80;;;;;;5003077;28;19934;-81
2022/05/22 12:13:26;;;;;;;;;;;24.30;77.70;;;;;;5019758;28;19926;-81
2022/05/22 12:15:54;;;;;;;;;;;24.80;77.60;;;;;;5020437;28;21061;-78
2022/05/22 12:18:42;;;;;;;;;;;24.80;76.80;;;;;;5003526;28;19933;-79
2022/05/22 12:21:10;;;;;;;;;;;24.80;76.90;;;;;;5000289;28;20386;-79
2022/05/22 12:23:56;;;;;;;;;;;24.80;78.40;;;;;;5001386;28;20570;-78
2022/05/22 12:26:33;;;;;;;;;;;25.00;78.00;;;;;;4985426;28;19925;-82
2022/05/22 12:29:10;;;;;;;;;;;25.10;76.90;;;;;;4983318;28;19941;-77
2022/05/22 12:31:44;;;;;;;;;;;24.80;75.70;;;;;;5000842;28;19941;-83
2022/05/22 12:34:20;;;;;;;;;;;24.80;76.00;;;;;;4980557;28;19926;-80
2022/05/22 12:36:53;;;;;;;;;;;24.80;76.20;;;;;;4998439;28;20299;-79
2022/05/22 12:39:26;;;;;;;;;;;25.20;77.60;;;;;;4996108;28;19944;-81
2022/05/22 12:42:06;;;;;;;;;;;25.00;75.70;;;;;;4983661;28;20278;-82
2022/05/22 12:44:42;;;;;;;;;;;25.20;77.00;;;;;;4998216;28;19930;-84
2022/05/22 12:47:13;;;;;;;;;;;24.80;75.80;;;;;;4982747;28;19933;-80
2022/05/22 12:49:55;;;;;;;;;;;25.50;73.90;;;;;;4998738;28;19930;-81
2022/05/22 12:52:27;;;;;;;;;;;25.50;71.30;;;;;;4999304;28;19925;-85
2022/05/22 12:55:00;;;;;;;;;;;25.40;71.60;;;;;;4999344;28;19933;-79
2022/05/22 12:57:29;;;;;;;;;;;25.40;73.20;;;;;;4993481;28;19936;-82
2022/05/22 13:00:17;;;;;;;;;;;24.50;69.40;;;;;;4985273;28;9999980;-82
2022/05/22 13:02:50;;;;;;;;;;;25.40;71.90;;;;;;4998456;28;19932;-78
2022/05/22 13:05:30;;;;;;;;;;;24.10;70.20;;;;;;4996947;28;19930;-82
2022/05/22 13:07:58;;;;;;;;;;;25.50;71.60;;;;;;5002769;28;19929;-84
2022/05/22 13:10:34;;;;;;;;;;;25.60;72.30;;;;;;4981579;28;19930;-78
2022/05/22 13:13:07;;;;;;;;;;;25.60;73.00;;;;;;5001273;28;19930;-84
2022/05/22 13:15:35;;;;;;;;;;;25.70;72.50;;;;;;4997801;28;19926;-81
2022/05/22 13:18:07;;;;;;;;;;;25.70;72.80;;;;;;4997238;28;19933;-79
2022/05/22 13:20:35;;;;;;;;;;;25.80;72.10;;;;;;4999835;28;19926;-80
2022/05/22 13:23:28;;;;;;;;;;;26.00;72.40;;;;;;4990583;28;19929;-79
2022/05/22 13:26:07;;;;;;;;;;;26.20;72.00;;;;;;4987703;28;19930;-85
2022/05/22 13:28:38;;;;;;;;;;;26.50;71.70;;;;;;4985884;28;19926;-78
2022/05/22 13:31:05;;;;;;;;;;;26.70;71.10;;;;;;4983940;28;20098;-79
2022/05/22 13:33:45;;;;;;;;;;;26.90;71.50;;;;;;5001520;28;20008;-79
2022/05/22 13:36:16;;;;;;;;;;;26.80;71.40;;;;;;5003441;28;20318;-80
2022/05/22 13:38:44;;;;;;;;;;;27.10;70.60;;;;;;4987812;28;19926;-78
2022/05/22 13:41:33;;;;;;;;;;;27.40;71.60;;;;;;4980639;28;19936;-77
2022/05/22 13:44:02;;;;;;;;;;;27.70;71.70;;;;;;4995090;28;19941;-78
2022/05/22 13:46:37;;;;;;;;;;;28.10;71.70;;;;;;5002985;28;19929;-79
2022/05/22 13:49:19;;;;;;;;;;;28.30;71.20;;;;;;5000066;28;19954;-81
2022/05/22 13:54:53;;;;;;;;;;;28.00;69.50;;;;;;5018096;28;19940;-78
2022/05/22 13:57:23;;;;;;;;;;;28.20;71.80;;;;;;5001346;28;19932;-79
2022/05/22 13:59:54;;;;;;;;;;;28.60;71.20;;;;;;5014519;28;20222;-79
2022/05/22 14:02:27;;;;;;;;;;;28.50;71.10;;;;;;5002129;28;19945;-81
2022/05/22 14:04:56;;;;;;;;;;;28.70;70.20;;;;;;5023059;28;19913;-80
2022/05/22 14:07:28;;;;;;;;;;;28.50;70.40;;;;;;5004116;28;19937;-80
2022/05/22 14:09:56;;;;;;;;;;;28.30;70.40;;;;;;4996468;28;19925;-80
2022/05/22 14:12:33;;;;;;;;;;;28.50;69.60;;;;;;4999723;28;19937;-79
2022/05/22 14:15:15;;;;;;;;;;;28.70;70.30;;;;;;4986452;28;19926;-81
2022/05/22 14:17:48;;;;;;;;;;;28.80;68.80;;;;;;4999233;28;19941;-82
2022/05/22 14:20:19;;;;;;;;;;;29.20;68.20;;;;;;5003589;28;20021;-82
2022/05/22 14:23:14;;;;;;;;;;;29.60;68.90;;;;;;4987872;28;19944;-82
2022/05/22 14:25:52;;;;;;;;;;;30.30;67.60;;;;;;4977139;28;19937;-80
2022/05/22 14:28:27;;;;;;;;;;;30.10;67.90;;;;;;5021022;28;19929;-83
2022/05/22 14:31:30;;;;;;;;;;;30.20;66.20;;;;;;5003667;28;19941;-89
2022/05/22 14:34:28;;;;;;;;;;;30.60;65.00;;;;;;5019138;28;19929;-86
2022/05/22 14:37:01;;;;;;;;;;;31.30;65.80;;;;;;4987530;28;19945;-84
2022/05/22 14:39:29;;;;;;;;;;;30.50;64.60;;;;;;5002690;28;19929;-82
2022/05/22 14:41:59;;;;;;;;;;;30.60;64.70;;;;;;5010014;28;19929;-80
2022/05/22 14:44:35;;;;;;;;;;;30.80;64.40;;;;;;5002127;28;19934;-87
2022/05/22 14:47:06;;;;;;;;;;;31.00;65.10;;;;;;5030815;28;19933;-82
2022/05/22 14:49:47;;;;;;;;;;;31.00;64.30;;;;;;5004887;28;19926;-81
2022/05/22 14:52:24;;;;;;;;;;;31.10;62.90;;;;;;5001945;28;19930;-80
2022/05/22 14:55:08;;;;;;;;;;;31.00;62.00;;;;;;5022113;28;19933;-80
2022/05/22 14:58:02;;;;;;;;;;;30.70;62.50;;;;;;5023860;28;19932;-83
2022/05/22 15:00:39;;;;;;;;;;;30.60;62.50;;;;;;4990690;28;19933;-82
2022/05/22 15:03:27;;;;;;;;;;;30.60;61.90;;;;;;5003559;28;19939;-83
2022/05/22 15:05:56;;;;;;;;;;;30.70;62.60;;;;;;4989020;28;19925;-82
2022/05/22 15:08:30;;;;;;;;;;;31.10;62.40;;;;;;5024787;28;20017;-80
2022/05/22 15:11:15;;;;;;;;;;;31.40;61.70;;;;;;5022368;28;19926;-85
2022/05/22 15:13:58;;;;;;;;;;;32.50;61.50;;;;;;5005566;28;19933;-84
2022/05/22 15:16:31;;;;;;;;;;;32.00;60.30;;;;;;5022371;28;19932;-87
2022/05/22 15:22:01;;;;;;;;;;;31.30;59.20;;;;;;5003725;28;19952;-82
2022/05/22 15:27:24;;;;;;;;;;;31.90;59.90;;;;;;4999373;28;20413;-80
2022/05/22 15:30:18;;;;;;;;;;;31.80;59.90;;;;;;5031137;28;19926;-82
2022/05/22 15:32:46;;;;;;;;;;;31.80;60.20;;;;;;5001746;28;19925;-88
2022/05/22 15:35:20;;;;;;;;;;;31.90;59.50;;;;;;5002403;28;19936;-83
2022/05/22 15:37:49;;;;;;;;;;;32.00;58.20;;;;;;5021349;28;20085;-83
2022/05/22 15:40:19;;;;;;;;;;;32.20;58.00;;;;;;5020359;28;20064;-79
2022/05/22 15:43:05;;;;;;;;;;;32.40;56.30;;;;;;5000539;28;19939;-80
2022/05/22 15:45:32;;;;;;;;;;;32.20;54.50;;;;;;5000662;28;19953;-79
2022/05/22 15:51:05;;;;;;;;;;;31.90;56.20;;;;;;5027124;28;20229;-79
2022/05/22 15:53:35;;;;;;;;;;;31.80;54.80;;;;;;5004492;28;19933;-79
2022/05/22 15:56:10;;;;;;;;;;;31.80;54.80;;;;;;5032057;28;19934;-81
2022/05/22 15:58:38;;;;;;;;;;;31.80;52.90;;;;;;5001942;28;19936;-79
2022/05/22 16:01:08;;;;;;;;;;;32.00;52.00;;;;;;5007704;28;19930;-85
2022/05/22 16:03:41;;;;;;;;;;;31.80;52.60;;;;;;4998880;28;19929;-80
2022/05/22 16:06:11;;;;;;;;;;;31.50;51.00;;;;;;4984829;28;19933;-80
2022/05/22 16:08:41;;;;;;;;;;;31.00;51.40;;;;;;5001566;28;19926;-80
2022/05/22 16:11:16;;;;;;;;;;;30.40;50.40;;;;;;4994664;28;19933;-81
2022/05/22 16:13:47;;;;;;;;;;;29.60;49.70;;;;;;5017159;22;19926;-84
2022/05/22 16:16:20;;;;;;;;;;;28.80;50.60;;;;;;4988469;28;19941;-83
2022/05/22 16:18:48;;;;;;;;;;;28.60;50.70;;;;;;4975155;28;19929;-85
2022/05/22 16:21:18;;;;;;;;;;;28.50;50.80;;;;;;4975652;28;19933;-83
2022/05/22 16:24:36;;;;;;;;;;;28.60;50.50;;;;;;4999356;28;20510;-85
2022/05/22 16:27:14;;;;;;;;;;;28.80;50.80;;;;;;4987744;28;20353;-87
2022/05/22 16:30:05;;;;;;;;;;;27.10;48.60;;;;;;4999319;28;19932;-85
2022/05/22 16:32:55;;;;;;;;;;;29.00;51.20;;;;;;5003109;28;19956;-85
2022/05/22 16:35:59;;;;;;;;;;;28.80;51.00;;;;;;5007310;28;19941;-86
2022/05/22 16:38:31;;;;;;;;;;;28.60;50.90;;;;;;5032938;28;20210;-85
2022/05/22 16:41:02;;;;;;;;;;;27.90;49.40;;;;;;5011664;28;19925;-85
2022/05/22 16:43:49;;;;;;;;;;;27.30;49.10;;;;;;5009703;28;19933;-84
2022/05/22 16:46:20;;;;;;;;;;;27.00;49.70;;;;;;5026997;28;19937;-82